This is the latest recevied weather packets stored in our database for station/object TG9SRP-22. If no packets are shown the sender has not sent any weather packets the latest 10 day(s).
| Time | Temp. | Humidity | Pressure | Rain* | Wind** | Luminosity | Snow |
|---|---|---|---|---|---|---|---|
| 1777900721 | 17.78° C | 77% | 1017 hPa | 0 mm | - | - | - |
| 1777900121 | 13.89° C | 94% | 1017 hPa | 0 mm | - | - | - |
| 1777899520 | 15° C | 94% | 1017 hPa | 0 mm | - | - | - |
| 1777898919 | 16.11° C | 94% | 1017 hPa | 0 mm | - | - | - |
| 1777898319 | 13.33° C | 93% | 1017 hPa | 0 mm | - | - | - |
| 1777897718 | 13.33° C | 93% | 1017 hPa | 0 mm | - | - | - |
| 1777897118 | 14.44° C | 92% | 1017 hPa | 0 mm | - | - | - |
| 1777896517 | 15.56° C | 90% | 1017 hPa | 0 mm | - | - | - |
| 1777895916 | 15.56° C | 90% | 1017 hPa | 0 mm | - | - | - |
| 1777895316 | 12.22° C | 93% | 1017 hPa | 0 mm | - | - | - |
| 1777894715 | 13.33° C | 92% | 1017 hPa | 0 mm | - | - | - |
| 1777894115 | 14.44° C | 91% | 1016 hPa | 0 mm | - | - | - |
| 1777893514 | 15.56° C | 90% | 1016 hPa | 0 mm | - | - | - |
| 1777892913 | 11.67° C | 93% | 1017 hPa | 0 mm | - | - | - |
| 1777892313 | 12.78° C | 92% | 1017 hPa | 0 mm | - | - | - |
| 1777891712 | 13.89° C | 91% | 1017 hPa | 0 mm | - | - | - |
| 1777891112 | 15° C | 90% | 1016 hPa | 0 mm | - | - | - |
| 1777890511 | 12.22° C | 10% | - | 0 mm | - | - | - |
| 1777889911 | 13.33° C | 10% | - | 0 mm | - | - | - |
| 1777889310 | 12.78° C | 94% | 1015 hPa | 0 mm | - | - | - |
| 1777888710 | 13.33° C | 92% | 1015 hPa | 0 mm | - | - | - |
| 1777888109 | 14.44° C | 92% | 1015 hPa | 0 mm | - | - | - |
| 1777887508 | 12.22° C | 92% | 1015 hPa | 0 mm | - | - | - |
| 1777886908 | 13.33° C | 91% | 1015 hPa | 0 mm | - | - | - |
| 1777886307 | 14.44° C | 91% | 1015 hPa | 0 mm | - | - | - |
* Rain latest hour (hover to see other rain measurements)
** Current wind speed in m/s (hover to see current wind gust speed)